sensor_id;sensor_type;location;lat;lon;timestamp;pressure;altitude;pressure_sealevel;temperature;humidity
57024;BME280;42916;54.346;18.562;2023-07-22T00:00:02;99891.48;;;15.35;97.76
57024;BME280;42916;54.346;18.562;2023-07-22T00:02:32;99888.98;;;15.31;98.15
57024;BME280;42916;54.346;18.562;2023-07-22T00:04:59;99888.17;;;15.29;98.28
57024;BME280;42916;54.346;18.562;2023-07-22T00:07:25;99877.73;;;15.28;98.54
57024;BME280;42916;54.346;18.562;2023-07-22T00:09:53;99875.26;;;15.25;98.19
57024;BME280;42916;54.346;18.562;2023-07-22T00:12:19;99874.04;;;15.19;98.03
57024;BME280;42916;54.346;18.562;2023-07-22T00:14:46;99872.10;;;15.14;98.23
57024;BME280;42916;54.346;18.562;2023-07-22T00:17:13;99872.16;;;15.10;98.13
57024;BME280;42916;54.346;18.562;2023-07-22T00:19:40;99872.58;;;15.08;98.54
57024;BME280;42916;54.346;18.562;2023-07-22T00:22:06;99871.32;;;15.08;98.49
57024;BME280;42916;54.346;18.562;2023-07-22T00:24:33;99870.25;;;15.06;98.38
57024;BME280;42916;54.346;18.562;2023-07-22T00:27:00;99872.69;;;15.04;98.34
57024;BME280;42916;54.346;18.562;2023-07-22T00:29:27;99869.09;;;15.03;98.39
57024;BME280;42916;54.346;18.562;2023-07-22T00:31:53;99869.92;;;15.02;98.33
57024;BME280;42916;54.346;18.562;2023-07-22T00:34:20;99865.99;;;14.98;98.32
57024;BME280;42916;54.346;18.562;2023-07-22T00:36:47;99865.29;;;14.95;98.42
57024;BME280;42916;54.346;18.562;2023-07-22T00:39:14;99860.56;;;14.92;98.68
57024;BME280;42916;54.346;18.562;2023-07-22T00:41:41;99856.79;;;14.92;98.69
57024;BME280;42916;54.346;18.562;2023-07-22T00:44:12;99860.47;;;14.90;98.76
57024;BME280;42916;54.346;18.562;2023-07-22T00:46:39;99855.67;;;14.89;98.58
57024;BME280;42916;54.346;18.562;2023-07-22T00:49:07;99850.88;;;14.87;98.77
57024;BME280;42916;54.346;18.562;2023-07-22T00:51:34;99849.46;;;14.83;98.66
57024;BME280;42916;54.346;18.562;2023-07-22T00:54:01;99847.02;;;14.81;98.52
57024;BME280;42916;54.346;18.562;2023-07-22T00:56:32;99843.65;;;14.80;98.67
57024;BME280;42916;54.346;18.562;2023-07-22T00:59:00;99844.03;;;14.80;98.85
57024;BME280;42916;54.346;18.562;2023-07-22T01:01:27;99843.96;;;14.77;98.56
57024;BME280;42916;54.346;18.562;2023-07-22T01:03:54;99840.25;;;14.77;98.65
57024;BME280;42916;54.346;18.562;2023-07-22T01:06:21;99835.88;;;14.76;98.79
57024;BME280;42916;54.346;18.562;2023-07-22T01:08:48;99835.44;;;14.76;98.85
57024;BME280;42916;54.346;18.562;2023-07-22T01:11:15;99831.42;;;14.77;98.76
57024;BME280;42916;54.346;18.562;2023-07-22T01:13:42;99822.10;;;14.75;98.84
57024;BME280;42916;54.346;18.562;2023-07-22T01:16:10;99825.23;;;14.72;98.69
57024;BME280;42916;54.346;18.562;2023-07-22T01:18:37;99821.25;;;14.69;98.84
57024;BME280;42916;54.346;18.562;2023-07-22T01:21:06;99814.91;;;14.65;98.78
57024;BME280;42916;54.346;18.562;2023-07-22T01:23:33;99813.39;;;14.64;98.69
57024;BME280;42916;54.346;18.562;2023-07-22T01:26:01;99811.25;;;14.61;99.17
57024;BME280;42916;54.346;18.562;2023-07-22T01:28:29;99804.21;;;14.58;99.25
57024;BME280;42916;54.346;18.562;2023-07-22T01:30:55;99801.06;;;14.55;99.23
57024;BME280;42916;54.346;18.562;2023-07-22T01:33:22;99801.11;;;14.52;99.40
57024;BME280;42916;54.346;18.562;2023-07-22T01:35:49;99797.02;;;14.52;99.66
57024;BME280;42916;54.346;18.562;2023-07-22T01:38:16;99793.75;;;14.54;99.87
57024;BME280;42916;54.346;18.562;2023-07-22T01:40:43;99789.27;;;14.51;99.81
57024;BME280;42916;54.346;18.562;2023-07-22T01:43:10;99790.98;;;14.49;99.91
57024;BME280;42916;54.346;18.562;2023-07-22T01:45:37;99791.02;;;14.46;99.90
57024;BME280;42916;54.346;18.562;2023-07-22T01:48:05;99790.02;;;14.47;100.00
57024;BME280;42916;54.346;18.562;2023-07-22T01:50:33;99781.11;;;14.45;100.00
57024;BME280;42916;54.346;18.562;2023-07-22T01:53:00;99778.63;;;14.41;100.00
57024;BME280;42916;54.346;18.562;2023-07-22T01:55:26;99777.53;;;14.33;100.00
57024;BME280;42916;54.346;18.562;2023-07-22T01:57:54;99776.77;;;14.24;99.97
57024;BME280;42916;54.346;18.562;2023-07-22T02:00:21;99779.18;;;14.15;99.99
57024;BME280;42916;54.346;18.562;2023-07-22T02:02:48;99778.40;;;14.08;100.00
57024;BME280;42916;54.346;18.562;2023-07-22T02:05:15;99777.99;;;14.06;100.00
57024;BME280;42916;54.346;18.562;2023-07-22T02:07:42;99780.70;;;14.05;100.00
57024;BME280;42916;54.346;18.562;2023-07-22T02:10:09;99775.23;;;14.04;100.00
57024;BME280;42916;54.346;18.562;2023-07-22T02:12:36;99774.71;;;14.02;100.00
57024;BME280;42916;54.346;18.562;2023-07-22T02:15:03;99774.83;;;14.01;100.00
57024;BME280;42916;54.346;18.562;2023-07-22T02:17:30;99775.42;;;13.99;100.00
57024;BME280;42916;54.346;18.562;2023-07-22T02:19:57;99776.55;;;14.00;100.00
57024;BME280;42916;54.346;18.562;2023-07-22T02:22:24;99778.45;;;14.00;100.00
57024;BME280;42916;54.346;18.562;2023-07-22T02:24:51;99769.02;;;13.99;100.00
57024;BME280;42916;54.346;18.562;2023-07-22T02:27:17;99768.81;;;13.98;100.00
57024;BME280;42916;54.346;18.562;2023-07-22T02:29:44;99777.63;;;13.97;100.00
57024;BME280;42916;54.346;18.562;2023-07-22T02:32:11;99772.55;;;13.96;100.00
57024;BME280;42916;54.346;18.562;2023-07-22T02:34:38;99769.25;;;13.93;100.00
57024;BME280;42916;54.346;18.562;2023-07-22T02:37:04;99769.11;;;13.87;100.00
57024;BME280;42916;54.346;18.562;2023-07-22T02:39:31;99766.17;;;13.81;100.00
57024;BME280;42916;54.346;18.562;2023-07-22T02:41:58;99767.05;;;13.76;100.00
57024;BME280;42916;54.346;18.562;2023-07-22T02:44:25;99766.81;;;13.68;100.00
57024;BME280;42916;54.346;18.562;2023-07-22T02:46:51;99767.50;;;13.66;100.00
57024;BME280;42916;54.346;18.562;2023-07-22T02:49:19;99767.30;;;13.65;100.00
57024;BME280;42916;54.346;18.562;2023-07-22T02:51:46;99769.97;;;13.65;100.00
57024;BME280;42916;54.346;18.562;2023-07-22T02:54:12;99763.88;;;13.67;100.00
57024;BME280;42916;54.346;18.562;2023-07-22T02:56:40;99762.85;;;13.66;100.00
57024;BME280;42916;54.346;18.562;2023-07-22T02:59:09;99768.02;;;13.63;100.00
57024;BME280;42916;54.346;18.562;2023-07-22T03:01:36;99764.58;;;13.59;100.00
57024;BME280;42916;54.346;18.562;2023-07-22T03:04:03;99758.20;;;13.56;100.00
57024;BME280;42916;54.346;18.562;2023-07-22T03:06:30;99764.32;;;13.52;100.00
57024;BME280;42916;54.346;18.562;2023-07-22T03:08:57;99759.14;;;13.51;100.00
57024;BME280;42916;54.346;18.562;2023-07-22T03:11:24;99757.05;;;13.48;100.00
57024;BME280;42916;54.346;18.562;2023-07-22T03:13:51;99760.28;;;13.47;100.00
57024;BME280;42916;54.346;18.562;2023-07-22T03:16:18;99759.47;;;13.46;100.00
57024;BME280;42916;54.346;18.562;2023-07-22T03:18:45;99758.13;;;13.44;100.00
57024;BME280;42916;54.346;18.562;2023-07-22T03:21:12;99762.52;;;13.42;100.00
57024;BME280;42916;54.346;18.562;2023-07-22T03:23:39;99762.54;;;13.40;100.00
57024;BME280;42916;54.346;18.562;2023-07-22T03:26:06;99762.60;;;13.40;100.00
57024;BME280;42916;54.346;18.562;2023-07-22T03:28:33;99766.31;;;13.40;100.00
57024;BME280;42916;54.346;18.562;2023-07-22T03:31:00;99762.05;;;13.41;100.00
57024;BME280;42916;54.346;18.562;2023-07-22T03:33:27;99765.61;;;13.39;100.00
57024;BME280;42916;54.346;18.562;2023-07-22T03:35:53;99762.09;;;13.40;100.00
57024;BME280;42916;54.346;18.562;2023-07-22T03:38:20;99760.38;;;13.43;100.00
57024;BME280;42916;54.346;18.562;2023-07-22T03:40:47;99762.05;;;13.44;100.00
57024;BME280;42916;54.346;18.562;2023-07-22T03:43:14;99759.20;;;13.46;100.00
57024;BME280;42916;54.346;18.562;2023-07-22T03:45:41;99761.68;;;13.48;100.00
57024;BME280;42916;54.346;18.562;2023-07-22T03:48:07;99757.23;;;13.50;100.00
57024;BME280;42916;54.346;18.562;2023-07-22T03:50:35;99761.17;;;13.51;100.00
57024;BME280;42916;54.346;18.562;2023-07-22T03:53:02;99767.73;;;13.51;100.00
57024;BME280;42916;54.346;18.562;2023-07-22T03:55:29;99760.88;;;13.51;100.00
57024;BME280;42916;54.346;18.562;2023-07-22T03:57:56;99760.37;;;13.53;100.00
57024;BME280;42916;54.346;18.562;2023-07-22T04:00:23;99761.02;;;13.54;100.00
57024;BME280;42916;54.346;18.562;2023-07-22T04:02:49;99756.94;;;13.57;100.00
57024;BME280;42916;54.346;18.562;2023-07-22T04:05:16;99754.77;;;13.61;100.00
57024;BME280;42916;54.346;18.562;2023-07-22T04:07:44;99754.16;;;13.66;100.00
57024;BME280;42916;54.346;18.562;2023-07-22T04:10:11;99750.45;;;13.75;100.00
57024;BME280;42916;54.346;18.562;2023-07-22T04:12:38;99750.27;;;13.85;100.00
57024;BME280;42916;54.346;18.562;2023-07-22T04:15:05;99750.41;;;13.94;100.00
57024;BME280;42916;54.346;18.562;2023-07-22T04:17:32;99749.44;;;14.02;100.00
57024;BME280;42916;54.346;18.562;2023-07-22T04:19:59;99750.80;;;14.11;100.00
57024;BME280;42916;54.346;18.562;2023-07-22T04:22:26;99747.07;;;14.19;100.00
57024;BME280;42916;54.346;18.562;2023-07-22T04:24:52;99750.70;;;14.30;100.00
57024;BME280;42916;54.346;18.562;2023-07-22T04:27:20;99744.00;;;14.39;100.00
57024;BME280;42916;54.346;18.562;2023-07-22T04:29:47;99746.04;;;14.48;100.00
57024;BME280;42916;54.346;18.562;2023-07-22T04:32:14;99751.09;;;14.60;100.00
57024;BME280;42916;54.346;18.562;2023-07-22T04:34:41;99754.13;;;14.72;100.00
57024;BME280;42916;54.346;18.562;2023-07-22T04:37:07;99755.07;;;14.82;100.00
57024;BME280;42916;54.346;18.562;2023-07-22T04:39:34;99755.29;;;14.92;100.00
57024;BME280;42916;54.346;18.562;2023-07-22T04:42:01;99761.23;;;15.03;100.00
57024;BME280;42916;54.346;18.562;2023-07-22T04:44:28;99763.25;;;15.10;100.00
57024;BME280;42916;54.346;18.562;2023-07-22T04:46:55;99761.27;;;15.16;99.96
57024;BME280;42916;54.346;18.562;2023-07-22T04:49:22;99756.70;;;15.23;99.77
57024;BME280;42916;54.346;18.562;2023-07-22T04:51:49;99758.40;;;15.33;99.41
57024;BME280;42916;54.346;18.562;2023-07-22T04:54:16;99757.92;;;15.40;99.21
57024;BME280;42916;54.346;18.562;2023-07-22T04:56:43;99759.01;;;15.50;99.06
57024;BME280;42916;54.346;18.562;2023-07-22T04:59:10;99757.66;;;15.57;98.80
57024;BME280;42916;54.346;18.562;2023-07-22T05:01:37;99760.39;;;15.63;98.41
57024;BME280;42916;54.346;18.562;2023-07-22T05:04:03;99762.38;;;15.71;98.19
57024;BME280;42916;54.346;18.562;2023-07-22T05:06:31;99761.15;;;15.75;97.64
57024;BME280;42916;54.346;18.562;2023-07-22T05:08:58;99759.08;;;15.75;97.09
57024;BME280;42916;54.346;18.562;2023-07-22T05:11:25;99756.56;;;15.74;96.57
57024;BME280;42916;54.346;18.562;2023-07-22T05:13:51;99762.85;;;15.76;96.81
57024;BME280;42916;54.346;18.562;2023-07-22T05:16:18;99765.52;;;15.77;96.63
57024;BME280;42916;54.346;18.562;2023-07-22T05:18:45;99763.36;;;15.80;96.51
57024;BME280;42916;54.346;18.562;2023-07-22T05:21:12;99761.42;;;15.87;96.60
57024;BME280;42916;54.346;18.562;2023-07-22T05:23:39;99764.80;;;15.88;96.14
57024;BME280;42916;54.346;18.562;2023-07-22T05:26:05;99765.55;;;15.92;95.98
57024;BME280;42916;54.346;18.562;2023-07-22T05:28:32;99763.47;;;15.94;95.65
57024;BME280;42916;54.346;18.562;2023-07-22T05:30:59;99763.05;;;15.96;95.44
57024;BME280;42916;54.346;18.562;2023-07-22T05:33:25;99765.07;;;15.98;95.34
57024;BME280;42916;54.346;18.562;2023-07-22T05:35:52;99759.16;;;16.05;95.48
57024;BME280;42916;54.346;18.562;2023-07-22T05:38:19;99751.27;;;16.13;95.37
57024;BME280;42916;54.346;18.562;2023-07-22T05:40:46;99749.92;;;16.17;95.05
57024;BME280;42916;54.346;18.562;2023-07-22T05:43:12;99755.23;;;16.22;94.95
57024;BME280;42916;54.346;18.562;2023-07-22T05:45:39;99749.92;;;16.26;94.64
57024;BME280;42916;54.346;18.562;2023-07-22T05:48:06;99748.29;;;16.33;94.27
57024;BME280;42916;54.346;18.562;2023-07-22T05:50:32;99746.09;;;16.31;93.28
57024;BME280;42916;54.346;18.562;2023-07-22T05:52:59;99750.19;;;16.29;93.19
57024;BME280;42916;54.346;18.562;2023-07-22T05:55:26;99750.14;;;16.34;93.34
57024;BME280;42916;54.346;18.562;2023-07-22T05:57:53;99752.91;;;16.37;92.95
57024;BME280;42916;54.346;18.562;2023-07-22T06:00:20;99755.86;;;16.38;92.78
57024;BME280;42916;54.346;18.562;2023-07-22T06:02:47;99758.52;;;16.42;92.49
57024;BME280;42916;54.346;18.562;2023-07-22T06:05:15;99752.73;;;16.40;92.51
57024;BME280;42916;54.346;18.562;2023-07-22T06:07:42;99755.17;;;16.42;92.33
57024;BME280;42916;54.346;18.562;2023-07-22T06:10:09;99750.83;;;16.47;92.39
57024;BME280;42916;54.346;18.562;2023-07-22T06:12:36;99753.60;;;16.50;91.77
57024;BME280;42916;54.346;18.562;2023-07-22T06:15:05;99753.96;;;16.51;91.42
57024;BME280;42916;54.346;18.562;2023-07-22T06:17:32;99749.03;;;16.53;91.43
57024;BME280;42916;54.346;18.562;2023-07-22T06:19:59;99751.25;;;16.56;91.35
57024;BME280;42916;54.346;18.562;2023-07-22T06:22:25;99750.79;;;16.63;91.24
57024;BME280;42916;54.346;18.562;2023-07-22T06:24:52;99750.00;;;16.65;91.19
57024;BME280;42916;54.346;18.562;2023-07-22T06:27:19;99752.84;;;16.73;91.52
57024;BME280;42916;54.346;18.562;2023-07-22T06:29:46;99757.40;;;16.80;91.07
57024;BME280;42916;54.346;18.562;2023-07-22T06:32:12;99755.58;;;16.82;90.83
57024;BME280;42916;54.346;18.562;2023-07-22T06:34:39;99756.83;;;16.86;90.67
57024;BME280;42916;54.346;18.562;2023-07-22T06:37:06;99752.64;;;16.84;90.14
57024;BME280;42916;54.346;18.562;2023-07-22T06:39:32;99753.64;;;16.81;90.14
57024;BME280;42916;54.346;18.562;2023-07-22T06:41:59;99753.84;;;16.79;90.01
57024;BME280;42916;54.346;18.562;2023-07-22T06:44:26;99752.96;;;16.79;89.96
57024;BME280;42916;54.346;18.562;2023-07-22T06:46:53;99755.45;;;16.77;89.75
57024;BME280;42916;54.346;18.562;2023-07-22T06:49:19;99755.88;;;16.82;90.14
57024;BME280;42916;54.346;18.562;2023-07-22T06:51:46;99761.58;;;16.91;90.16
57024;BME280;42916;54.346;18.562;2023-07-22T06:54:13;99758.31;;;17.01;89.99
57024;BME280;42916;54.346;18.562;2023-07-22T06:56:40;99762.50;;;17.08;89.49
57024;BME280;42916;54.346;18.562;2023-07-22T06:59:06;99758.95;;;17.11;89.04
57024;BME280;42916;54.346;18.562;2023-07-22T07:01:33;99758.20;;;17.21;89.40
57024;BME280;42916;54.346;18.562;2023-07-22T07:04:00;99759.72;;;17.34;89.32
57024;BME280;42916;54.346;18.562;2023-07-22T07:06:28;99765.96;;;17.47;89.03
57024;BME280;42916;54.346;18.562;2023-07-22T07:08:55;99766.52;;;17.53;88.14
57024;BME280;42916;54.346;18.562;2023-07-22T07:11:22;99766.73;;;17.61;88.19
57024;BME280;42916;54.346;18.562;2023-07-22T07:13:48;99767.02;;;17.74;87.93
57024;BME280;42916;54.346;18.562;2023-07-22T07:16:27;99762.75;;;17.83;87.45
57024;BME280;42916;54.346;18.562;2023-07-22T07:18:54;99760.94;;;17.98;86.96
57024;BME280;42916;54.346;18.562;2023-07-22T07:21:22;99761.07;;;17.98;86.84
57024;BME280;42916;54.346;18.562;2023-07-22T07:23:49;99765.71;;;18.12;86.90
57024;BME280;42916;54.346;18.562;2023-07-22T07:26:16;99769.89;;;18.26;86.54
57024;BME280;42916;54.346;18.562;2023-07-22T07:28:43;99770.55;;;18.38;86.11
57024;BME280;42916;54.346;18.562;2023-07-22T07:31:11;99771.87;;;18.43;84.56
57024;BME280;42916;54.346;18.562;2023-07-22T07:33:37;99774.84;;;18.53;83.93
57024;BME280;42916;54.346;18.562;2023-07-22T07:36:04;99770.38;;;18.75;83.68
57024;BME280;42916;54.346;18.562;2023-07-22T07:38:31;99771.38;;;18.83;80.27
57024;BME280;42916;54.346;18.562;2023-07-22T07:41:00;99775.70;;;18.84;78.70
57024;BME280;42916;54.346;18.562;2023-07-22T07:43:26;99774.60;;;18.95;79.25
57024;BME280;42916;54.346;18.562;2023-07-22T07:48:39;99774.48;;;19.20;78.30
57024;BME280;42916;54.346;18.562;2023-07-22T07:51:05;99780.99;;;19.20;77.38
57024;BME280;42916;54.346;18.562;2023-07-22T07:53:32;99786.36;;;19.14;77.01
57024;BME280;42916;54.346;18.562;2023-07-22T07:55:59;99788.02;;;19.05;76.11
57024;BME280;42916;54.346;18.562;2023-07-22T07:58:26;99786.89;;;18.97;76.48
57024;BME280;42916;54.346;18.562;2023-07-22T08:00:53;99788.80;;;18.96;76.34
57024;BME280;42916;54.346;18.562;2023-07-22T08:03:19;99784.22;;;19.03;77.23
57024;BME280;42916;54.346;18.562;2023-07-22T08:05:47;99788.96;;;19.16;77.12
57024;BME280;42916;54.346;18.562;2023-07-22T08:08:13;99787.14;;;19.29;76.61
57024;BME280;42916;54.346;18.562;2023-07-22T08:10:40;99786.92;;;19.42;76.82
57024;BME280;42916;54.346;18.562;2023-07-22T08:13:08;99786.65;;;19.52;76.62
57024;BME280;42916;54.346;18.562;2023-07-22T08:15:35;99786.70;;;19.60;76.30
57024;BME280;42916;54.346;18.562;2023-07-22T08:18:02;99785.31;;;19.68;76.23
57024;BME280;42916;54.346;18.562;2023-07-22T08:20:30;99789.64;;;19.79;76.30
57024;BME280;42916;54.346;18.562;2023-07-22T08:22:57;99792.32;;;19.90;75.58
57024;BME280;42916;54.346;18.562;2023-07-22T08:25:23;99794.09;;;19.95;75.35
57024;BME280;42916;54.346;18.562;2023-07-22T08:27:50;99792.70;;;20.02;75.20
57024;BME280;42916;54.346;18.562;2023-07-22T08:30:17;99792.12;;;20.07;74.79
57024;BME280;42916;54.346;18.562;2023-07-22T08:32:43;99795.11;;;20.07;74.37
57024;BME280;42916;54.346;18.562;2023-07-22T08:35:10;99795.52;;;20.07;74.72
57024;BME280;42916;54.346;18.562;2023-07-22T08:37:37;99797.39;;;20.07;74.87
57024;BME280;42916;54.346;18.562;2023-07-22T08:40:04;99798.92;;;20.02;74.60
57024;BME280;42916;54.346;18.562;2023-07-22T08:42:32;99798.66;;;19.93;74.29
57024;BME280;42916;54.346;18.562;2023-07-22T08:45:01;99798.52;;;19.75;72.41
57024;BME280;42916;54.346;18.562;2023-07-22T08:47:29;99798.02;;;19.61;73.32
57024;BME280;42916;54.346;18.562;2023-07-22T08:49:58;99801.06;;;19.54;73.27
57024;BME280;42916;54.346;18.562;2023-07-22T08:52:27;99799.76;;;19.55;73.41
57024;BME280;42916;54.346;18.562;2023-07-22T08:54:54;99803.39;;;19.53;71.57
57024;BME280;42916;54.346;18.562;2023-07-22T08:57:21;99799.65;;;19.49;71.35
57024;BME280;42916;54.346;18.562;2023-07-22T08:59:48;99799.63;;;19.52;70.87
57024;BME280;42916;54.346;18.562;2023-07-22T09:02:16;99798.77;;;19.61;71.41
57024;BME280;42916;54.346;18.562;2023-07-22T09:04:43;99802.81;;;19.83;71.32
57024;BME280;42916;54.346;18.562;2023-07-22T09:07:11;99803.88;;;19.98;70.83
57024;BME280;42916;54.346;18.562;2023-07-22T09:09:39;99798.46;;;20.02;70.08
57024;BME280;42916;54.346;18.562;2023-07-22T09:12:06;99796.67;;;20.03;70.06
57024;BME280;42916;54.346;18.562;2023-07-22T09:14:34;99800.17;;;20.04;69.57
57024;BME280;42916;54.346;18.562;2023-07-22T09:17:01;99799.21;;;20.01;67.76
57024;BME280;42916;54.346;18.562;2023-07-22T09:19:29;99802.09;;;19.90;67.12
57024;BME280;42916;54.346;18.562;2023-07-22T09:21:56;99798.75;;;19.76;66.80
57024;BME280;42916;54.346;18.562;2023-07-22T09:24:26;99791.99;;;19.73;67.89
57024;BME280;42916;54.346;18.562;2023-07-22T09:26:54;99798.67;;;19.73;68.54
57024;BME280;42916;54.346;18.562;2023-07-22T09:29:34;99798.58;;;19.72;68.87
57024;BME280;42916;54.346;18.562;2023-07-22T09:32:02;99802.94;;;19.55;68.17
57024;BME280;42916;54.346;18.562;2023-07-22T09:34:29;99806.20;;;19.41;68.03
57024;BME280;42916;54.346;18.562;2023-07-22T09:36:58;99802.37;;;19.42;68.90
57024;BME280;42916;54.346;18.562;2023-07-22T09:39:30;99809.73;;;19.56;68.63
57024;BME280;42916;54.346;18.562;2023-07-22T09:41:57;99803.23;;;19.61;67.85
57024;BME280;42916;54.346;18.562;2023-07-22T09:44:30;99806.73;;;19.56;67.66
57024;BME280;42916;54.346;18.562;2023-07-22T09:46:57;99805.20;;;19.46;67.75
57024;BME280;42916;54.346;18.562;2023-07-22T09:49:24;99800.89;;;19.45;68.21
57024;BME280;42916;54.346;18.562;2023-07-22T09:51:51;99812.23;;;19.51;67.30
57024;BME280;42916;54.346;18.562;2023-07-22T09:54:19;99826.61;;;19.38;62.32
57024;BME280;42916;54.346;18.562;2023-07-22T09:56:49;99829.74;;;19.26;63.29
57024;BME280;42916;54.346;18.562;2023-07-22T09:59:18;99835.01;;;19.22;63.24
57024;BME280;42916;54.346;18.562;2023-07-22T10:01:46;99840.00;;;19.27;63.71
57024;BME280;42916;54.346;18.562;2023-07-22T10:04:18;99827.83;;;19.31;64.36
57024;BME280;42916;54.346;18.562;2023-07-22T10:06:48;99834.08;;;19.34;63.71
57024;BME280;42916;54.346;18.562;2023-07-22T10:09:15;99833.66;;;19.30;63.75
57024;BME280;42916;54.346;18.562;2023-07-22T10:11:43;99839.80;;;19.29;63.71
57024;BME280;42916;54.346;18.562;2023-07-22T10:14:11;99846.47;;;19.25;64.32
57024;BME280;42916;54.346;18.562;2023-07-22T10:16:41;99841.33;;;19.26;63.35
57024;BME280;42916;54.346;18.562;2023-07-22T10:19:08;99842.28;;;19.21;61.94
57024;BME280;42916;54.346;18.562;2023-07-22T10:21:36;99838.06;;;19.16;61.37
57024;BME280;42916;54.346;18.562;2023-07-22T10:24:05;99840.13;;;19.21;62.47
57024;BME280;42916;54.346;18.562;2023-07-22T10:26:32;99850.14;;;19.20;62.28
57024;BME280;42916;54.346;18.562;2023-07-22T10:28:59;99850.76;;;19.09;62.55
57024;BME280;42916;54.346;18.562;2023-07-22T10:31:31;99858.45;;;19.00;62.72
57024;BME280;42916;54.346;18.562;2023-07-22T10:33:57;99857.31;;;18.87;63.15
57024;BME280;42916;54.346;18.562;2023-07-22T10:36:29;99865.37;;;18.79;64.11
57024;BME280;42916;54.346;18.562;2023-07-22T10:38:57;99869.84;;;18.72;65.06
57024;BME280;42916;54.346;18.562;2023-07-22T10:41:24;99872.70;;;18.70;65.44
57024;BME280;42916;54.346;18.562;2023-07-22T10:43:58;99875.55;;;18.73;65.13
57024;BME280;42916;54.346;18.562;2023-07-22T10:46:34;99876.61;;;18.79;64.57
57024;BME280;42916;54.346;18.562;2023-07-22T10:49:15;99873.24;;;18.88;64.55
57024;BME280;42916;54.346;18.562;2023-07-22T10:51:50;99876.55;;;19.03;64.86
57024;BME280;42916;54.346;18.562;2023-07-22T10:54:34;99873.92;;;19.31;65.05
57024;BME280;42916;54.346;18.562;2023-07-22T10:57:22;99874.87;;;19.62;63.67
57024;BME280;42916;54.346;18.562;2023-07-22T10:59:51;99874.96;;;19.79;63.31
57024;BME280;42916;54.346;18.562;2023-07-22T11:02:26;99883.17;;;19.79;60.92
57024;BME280;42916;54.346;18.562;2023-07-22T11:04:56;99890.98;;;19.67;60.15
57024;BME280;42916;54.346;18.562;2023-07-22T11:07:42;99889.27;;;19.51;60.37
57024;BME280;42916;54.346;18.562;2023-07-22T11:10:18;99886.48;;;19.37;59.70
57024;BME280;42916;54.346;18.562;2023-07-22T11:12:45;99880.18;;;19.39;60.79
57024;BME280;42916;54.346;18.562;2023-07-22T11:15:15;99886.82;;;19.56;60.73
57024;BME280;42916;54.346;18.562;2023-07-22T11:17:42;99888.56;;;19.60;60.08
57024;BME280;42916;54.346;18.562;2023-07-22T11:20:09;99886.58;;;19.52;59.94
57024;BME280;42916;54.346;18.562;2023-07-22T11:22:39;99879.98;;;19.45;59.81
57024;BME280;42916;54.346;18.562;2023-07-22T11:25:07;99880.97;;;19.33;58.93
57024;BME280;42916;54.346;18.562;2023-07-22T11:27:34;99878.14;;;19.30;59.68
57024;BME280;42916;54.346;18.562;2023-07-22T11:30:02;99886.02;;;19.29;60.16
57024;BME280;42916;54.346;18.562;2023-07-22T11:32:30;99889.09;;;19.25;60.54
57024;BME280;42916;54.346;18.562;2023-07-22T11:34:56;99888.42;;;19.21;60.70
57024;BME280;42916;54.346;18.562;2023-07-22T11:37:23;99884.95;;;19.28;60.73
57024;BME280;42916;54.346;18.562;2023-07-22T11:39:50;99888.41;;;19.38;61.35
57024;BME280;42916;54.346;18.562;2023-07-22T11:42:16;99884.47;;;19.51;61.38
57024;BME280;42916;54.346;18.562;2023-07-22T11:44:43;99879.79;;;19.78;61.34
57024;BME280;42916;54.346;18.562;2023-07-22T11:47:10;99883.42;;;20.24;61.05
57024;BME280;42916;54.346;18.562;2023-07-22T11:49:40;99884.32;;;20.72;60.33
57024;BME280;42916;54.346;18.562;2023-07-22T11:52:15;99888.66;;;20.95;56.66
57024;BME280;42916;54.346;18.562;2023-07-22T11:54:45;99888.43;;;20.76;55.55
57024;BME280;42916;54.346;18.562;2023-07-22T11:57:16;99886.08;;;20.68;56.11
57024;BME280;42916;54.346;18.562;2023-07-22T11:59:45;99888.48;;;20.56;55.89
57024;BME280;42916;54.346;18.562;2023-07-22T12:02:16;99882.68;;;20.69;57.14
57024;BME280;42916;54.346;18.562;2023-07-22T12:04:51;99880.84;;;21.03;54.74
57024;BME280;42916;54.346;18.562;2023-07-22T12:07:25;99881.45;;;21.27;54.84
57024;BME280;42916;54.346;18.562;2023-07-22T12:09:54;99873.44;;;21.54;52.74
57024;BME280;42916;54.346;18.562;2023-07-22T12:12:21;99874.88;;;21.53;48.48
57024;BME280;42916;54.346;18.562;2023-07-22T12:15:22;99876.23;;;21.40;50.91
57024;BME280;42916;54.346;18.562;2023-07-22T12:17:55;99885.55;;;21.71;49.74
57024;BME280;42916;54.346;18.562;2023-07-22T12:20:27;99881.54;;;22.05;48.99
57024;BME280;42916;54.346;18.562;2023-07-22T12:22:55;99885.17;;;22.36;49.12
57024;BME280;42916;54.346;18.562;2023-07-22T12:25:22;99913.70;;;22.20;47.71
57024;BME280;42916;54.346;18.562;2023-07-22T12:27:49;99939.02;;;21.43;46.64
57024;BME280;42916;54.346;18.562;2023-07-22T12:30:19;99957.34;;;20.16;50.28
57024;BME280;42916;54.346;18.562;2023-07-22T12:32:47;99969.35;;;19.11;54.62
57024;BME280;42916;54.346;18.562;2023-07-22T12:35:14;99960.95;;;18.40;56.87
57024;BME280;42916;54.346;18.562;2023-07-22T12:37:40;99962.30;;;18.02;58.97
57024;BME280;42916;54.346;18.562;2023-07-22T12:40:08;99953.88;;;18.00;60.22
57024;BME280;42916;54.346;18.562;2023-07-22T12:42:38;99952.70;;;17.93;60.72
57024;BME280;42916;54.346;18.562;2023-07-22T12:45:05;99948.89;;;17.93;61.52
57024;BME280;42916;54.346;18.562;2023-07-22T12:47:32;99948.67;;;17.95;61.92
57024;BME280;42916;54.346;18.562;2023-07-22T12:49:59;99940.48;;;18.27;61.93
57024;BME280;42916;54.346;18.562;2023-07-22T12:52:25;99939.15;;;18.78;61.04